etsfs.com

SPEED LOG BR GSoares

SPEED LOG BR

Online ETSFS
  • Iniciou dia:: 2019-11-27 as :22:18:44
  • Finalizou dia: as:23:10:44
  • Saiu de:Birmingham Empresa: BCP
  • Para: Amsterdam Empresa: LkwLog GmbH
  • Carga:Baterias Usadas de Carros Pesando: 17 t. Frete :30112
  • Código Viagem:1804936
  • Fabricante:Mercedes-Benz Modelo:Actros
  • Combustivel Inicio/Fim: 179 L / 313 L / Consumo: 300 L - Media 2.53 KM/L
  • Odometro Inicio/Fim: 275433 / 276193
  • Distancia Estimada 822 Km Distancia Balsa: 62
  • km Rodado: 760 Km - Ponto$ : $38
  • Tempo Total da Viagem 52.00 Min. / Média de KM/Min : 14.62
Histórico Viagem
Data H.Jogo Vel. Odômetro RPM Marcha Diesel Engine Cabine Pneus Chassis Trailer
27/11/2019-22:18:41 09:37 0 275433 550.0006 0 179 0 0 0 0 0 0
27/11/2019-22:22:53 10:02 52 275463 935.9877 11 165 0 0 0 0 0 0
27/11/2019-22:23:20 10:05 0 275467 502.256 0 165 0 0 0 0 0 0
27/11/2019-22:25:24 10:17 52 275493 1510.531 9 588 0 0 0 0 0 0
27/11/2019-22:25:54 10:20 0 275499 0 0 584 0 0 0 0 0 0
27/11/2019-22:31:32 10:54 79 275523 1428.523 11 575 0 0 0 0 0 0
27/11/2019-22:34:03 11:09 79 275553 1437.28 11 558 0 0 0 0 0 0
27/11/2019-22:38:36 11:37 89 275583 1251.127 12 543 0 0 0 0 0 0
27/11/2019-22:40:02 11:45 82 275613 1156.09 12 529 0 0 0 0 0 0
27/11/2019-22:41:23 11:53 89 275643 1253.194 12 519 0 0 0 0 0 0
27/11/2019-22:42:44 12:01 89 275673 1254.32 12 510 0 0 0 0 0 0
27/11/2019-22:44:03 12:09 90 275703 1253.299 12 501 0 0 0 0 0 0
27/11/2019-22:45:43 12:19 85 275733 550.0006 0 493 0 0 0 0 0 0
27/11/2019-22:47:32 12:30 83 275763 1153.299 12 479 0 0 0 0 0 0
27/11/2019-22:49:37 12:42 0 275793 550.0867 0 469 0 0 0 0 0 0
27/11/2019-22:50:07 12:46 54 275793 1213.62 10 468 0 0 0 0 0 0
27/11/2019-22:50:19 12:47 44 275794 981.4448 10 468 0 0 0 0 0 1
27/11/2019-22:50:20 12:47 43 275794 977.9512 10 468 0 0 0 0 0 1
27/11/2019-22:52:12 12:58 92 275823 1278.448 12 451 0 0 0 0 0 1
27/11/2019-22:53:27 13:06 55 275853 834.9573 0 445 0 0 0 0 0 1
27/11/2019-22:56:06 13:22 89 275883 1247.855 12 425 0 0 0 0 0 1
27/11/2019-22:57:19 13:29 89 275913 1248.716 12 416 0 0 0 1 0 1
27/11/2019-22:58:23 13:35 89 275943 1254.873 12 405 0 0 0 1 0 1
27/11/2019-22:59:28 13:42 95 275973 1316.229 12 393 0 0 0 1 0 1
27/11/2019-23:00:34 13:48 85 276003 1537.43 11 380 0 0 0 1 0 1
27/11/2019-23:01:40 13:55 69 276033 1212.997 11 373 0 0 0 1 0 1
27/11/2019-23:02:56 14:03 89 276063 1253.419 12 359 0 0 0 1 0 1
27/11/2019-23:04:18 14:11 88 276093 1226.965 12 348 0 0 0 1 0 1
27/11/2019-23:05:56 14:21 89 276123 1248.805 12 339 0 0 0 1 0 1
27/11/2019-23:07:01 14:27 78 276153 1095.328 12 327 0 0 0 1 0 1
27/11/2019-23:08:06 14:34 83 276183 1158.89 12 316 0 0 0 1 0 1
27/11/2019-23:08:26 14:36 49 276190 1423.684 9 315 0 0 0 1 0 1
27/11/2019-23:10:45 14:48 0 276193 0 0 313 0 0 0 1 0 0
Multas
Data Jogo Hora Jogo Data Hora Limite Tolerância Vel. Multa
Não existe Multa

Sobre nós

Pensando na facilidade e comodidade de criar sua empresa virtual e armazenar seus registros, o etsfs passou a oferecer um aplicativo que ao executá-lo juntamente com um simulador descrito no menu,você poderá registrar suas viagens automaticamente em nosso site sem nenhum problema,FAÇA SEU REGISTRO!

Redes Sociais
Doações

Contatos